createdAt,value
2017-10-25T00:00:52.711Z,2.97
2017-10-25T00:02:03.054Z,2.95
2017-10-25T00:03:13.058Z,3.01
2017-10-25T00:04:23.059Z,2.98
2017-10-25T00:05:33.399Z,2.97
2017-10-25T00:06:43.731Z,2.98
2017-10-25T00:07:54.076Z,3.03
2017-10-25T00:09:04.418Z,2.93
2017-10-25T00:10:14.781Z,2.93
2017-10-25T00:11:24.460Z,2.98
2017-10-25T00:12:34.799Z,3.08
2017-10-25T00:13:45.132Z,2.97
2017-10-25T00:14:55.469Z,2.97
2017-10-25T00:16:05.806Z,2.93
2017-10-25T00:17:15.809Z,2.94
2017-10-25T00:18:26.168Z,2.94
2017-10-25T00:19:36.508Z,2.94
2017-10-25T00:20:46.844Z,2.95
2017-10-25T00:21:57.183Z,3
2017-10-25T00:23:07.528Z,2.91
2017-10-25T00:24:17.875Z,2.97
2017-10-25T00:25:28.214Z,2.98
2017-10-25T00:26:38.552Z,3.05
2017-10-25T00:27:48.895Z,2.98
2017-10-25T00:28:59.235Z,2.98
2017-10-25T00:30:09.250Z,3
2017-10-25T00:31:18.922Z,3.03
2017-10-25T00:32:28.928Z,3.01
2017-10-25T00:33:39.298Z,3.06
2017-10-25T00:34:49.301Z,3
2017-10-25T00:35:59.636Z,3.01
2017-10-25T00:37:09.984Z,3.03
2017-10-25T00:38:19.988Z,3.06
2017-10-25T00:39:30.323Z,3.01
2017-10-25T00:40:40.659Z,3.03
2017-10-25T00:41:51.008Z,3.05
2017-10-25T00:43:01.351Z,3.05
2017-10-25T00:44:11.358Z,3.05
2017-10-25T00:45:21.023Z,3.12
2017-10-25T00:46:31.028Z,3.06
2017-10-25T00:47:41.027Z,3.08
2017-10-25T00:48:51.371Z,3.09
2017-10-25T00:50:01.724Z,3.16
2017-10-25T00:51:12.060Z,3.15
2017-10-25T00:52:22.405Z,3.08
2017-10-25T00:53:32.411Z,3.13
2017-10-25T00:54:42.748Z,3.15
2017-10-25T00:55:53.097Z,3.19
2017-10-25T00:57:03.435Z,3.15
2017-10-25T00:58:13.769Z,3.21
2017-10-25T00:59:24.109Z,3.24
2017-10-25T01:00:34.135Z,3.15
2017-10-25T01:01:44.474Z,3.19
2017-10-25T01:02:54.813Z,3.15
2017-10-25T01:04:05.155Z,3.29
2017-10-25T01:05:14.821Z,3.19
2017-10-25T01:06:24.826Z,3.16
2017-10-25T01:07:35.161Z,3.29
2017-10-25T01:08:45.508Z,3.19
2017-10-25T01:09:55.512Z,3.24
2017-10-25T01:11:05.528Z,3.19
2017-10-25T01:12:15.871Z,3.26
2017-10-25T01:13:25.876Z,3.34
2017-10-25T01:14:35.882Z,3.27
2017-10-25T01:15:45.883Z,3.26
2017-10-25T01:16:55.550Z,3.29
2017-10-25T01:18:05.897Z,3.34
2017-10-25T01:19:16.232Z,3.36
2017-10-25T01:20:26.250Z,3.27
2017-10-25T01:21:36.589Z,3.24
2017-10-25T01:22:46.954Z,3.26
2017-10-25T01:23:57.310Z,3.33
2017-10-25T01:25:07.656Z,3.27
2017-10-25T01:26:18.002Z,3.34
2017-10-25T01:27:28.002Z,3.4
2017-10-25T01:28:38.359Z,3.29
2017-10-25T01:29:48.360Z,3.33
2017-10-25T01:30:58.368Z,3.43
2017-10-25T01:32:08.050Z,3.33
2017-10-25T01:33:18.399Z,3.31
2017-10-25T01:34:28.739Z,3.33
2017-10-25T01:35:39.075Z,3.36
2017-10-25T01:36:49.084Z,3.43
2017-10-25T01:37:58.750Z,3.4
2017-10-25T01:39:09.104Z,3.36
2017-10-25T01:40:19.466Z,3.41
2017-10-25T01:41:29.465Z,3.46
2017-10-25T01:42:39.135Z,3.48
2017-10-25T01:43:49.137Z,3.46
2017-10-25T01:44:59.488Z,3.46
2017-10-25T01:46:09.825Z,3.36
2017-10-25T01:47:20.170Z,3.46
2017-10-25T01:48:29.836Z,3.43
2017-10-25T01:49:40.190Z,3.33
2017-10-25T01:50:50.534Z,3.36
2017-10-25T01:52:00.199Z,3.41
2017-10-25T01:53:09.866Z,3.4
2017-10-25T01:54:20.209Z,3.45
2017-10-25T01:55:30.547Z,3.46
2017-10-25T01:56:40.890Z,3.43
2017-10-25T01:57:51.231Z,3.45
2017-10-25T01:59:01.588Z,3.46
2017-10-25T02:00:11.605Z,3.46
2017-10-25T02:01:21.948Z,3.46
2017-10-25T02:02:31.952Z,3.41
2017-10-25T02:03:42.290Z,3.36
2017-10-25T02:04:52.296Z,3.31
2017-10-25T02:06:02.312Z,3.45
2017-10-25T02:07:12.314Z,3.37
2017-10-25T02:08:22.683Z,3.36
2017-10-25T02:09:33.021Z,3.34
2017-10-25T02:10:43.366Z,3.36
2017-10-25T02:11:53.368Z,3.41
2017-10-25T02:13:03.370Z,3.31
2017-10-25T02:14:13.374Z,3.3
2017-10-25T02:15:23.716Z,3.4
2017-10-25T02:16:34.059Z,3.3
2017-10-25T02:17:44.396Z,3.4
2017-10-25T02:18:54.733Z,3.31
2017-10-25T02:20:04.733Z,3.37
2017-10-25T02:21:14.740Z,3.37
2017-10-25T02:22:25.086Z,3.46
2017-10-25T02:23:35.096Z,3.36
2017-10-25T02:24:45.444Z,3.31
2017-10-25T02:25:55.793Z,3.36
2017-10-25T02:27:06.138Z,3.34
2017-10-25T02:28:16.489Z,3.46
2017-10-25T02:29:26.827Z,3.46
2017-10-25T02:30:36.834Z,3.33
2017-10-25T02:31:47.181Z,3.34
2017-10-25T02:32:57.518Z,3.36
2017-10-25T02:34:07.863Z,3.33
2017-10-25T02:35:18.203Z,3.34
2017-10-25T02:36:28.561Z,3.36
2017-10-25T02:37:38.569Z,3.33
2017-10-25T02:38:48.586Z,3.45
2017-10-25T02:39:58.612Z,3.3
2017-10-25T02:41:08.647Z,3.45
2017-10-25T02:42:18.991Z,3.43
2017-10-25T02:43:29.325Z,3.43
2017-10-25T02:44:39.670Z,3.45
2017-10-25T02:45:50.016Z,3.46
2017-10-25T02:47:00.023Z,3.45
2017-10-25T02:48:10.366Z,3.45
2017-10-25T02:49:20.372Z,3.46
2017-10-25T02:50:30.375Z,3.46
2017-10-25T02:51:40.717Z,3.41
2017-10-25T02:52:50.746Z,3.46
2017-10-25T02:54:01.108Z,3.41
2017-10-25T02:55:11.474Z,3.43
2017-10-25T02:56:21.829Z,3.5
2017-10-25T02:57:32.186Z,3.48
2017-10-25T02:58:42.543Z,3.46
2017-10-25T02:59:52.553Z,3.43
2017-10-25T03:01:02.909Z,3.46
2017-10-25T03:02:12.909Z,3.45
2017-10-25T03:03:23.260Z,3.5
2017-10-25T03:04:33.592Z,3.43
2017-10-25T03:05:43.928Z,3.43
2017-10-25T03:06:53.938Z,3.45
2017-10-25T03:08:03.941Z,3.48
2017-10-25T03:09:14.283Z,3.4
2017-10-25T03:10:23.616Z,3.43
2017-10-25T03:11:33.630Z,3.45
2017-10-25T03:12:43.970Z,3.46
2017-10-25T03:13:53.635Z,3.46
2017-10-25T03:15:03.973Z,3.41
2017-10-25T03:16:14.321Z,3.48
2017-10-25T03:17:24.334Z,3.49
2017-10-25T03:18:34.335Z,3.43
2017-10-25T03:19:44.670Z,3.46
2017-10-25T03:20:55.012Z,3.43
2017-10-25T03:22:05.352Z,3.41
2017-10-25T03:23:15.355Z,3.3
2017-10-25T03:24:25.022Z,3.4
2017-10-25T03:25:35.022Z,3.45
2017-10-25T03:26:45.019Z,3.46
2017-10-25T03:27:55.358Z,3.43
2017-10-25T03:29:05.714Z,3.3
2017-10-25T03:30:16.062Z,3.46
2017-10-25T03:31:26.067Z,3.46
2017-10-25T03:32:36.404Z,3.45
2017-10-25T03:33:46.402Z,3.43
2017-10-25T03:34:56.746Z,3.5
2017-10-25T03:36:06.082Z,3.45
2017-10-25T03:37:16.090Z,3.49
2017-10-25T03:38:26.090Z,3.49
2017-10-25T03:39:36.129Z,3.48
2017-10-25T03:40:46.468Z,3.48
2017-10-25T03:41:56.472Z,3.49
2017-10-25T03:43:06.489Z,3.48
2017-10-25T03:44:16.831Z,3.48
2017-10-25T03:45:26.505Z,3.43
2017-10-25T03:46:36.842Z,3.43
2017-10-25T03:47:46.849Z,3.43
2017-10-25T03:48:56.870Z,3.49
2017-10-25T03:50:06.893Z,3.46
2017-10-25T03:51:16.901Z,3.46
2017-10-25T03:52:26.909Z,3.46
2017-10-25T03:53:37.248Z,3.45
2017-10-25T03:54:47.588Z,3.45
2017-10-25T03:55:57.591Z,3.4
2017-10-25T03:57:07.930Z,3.46
2017-10-25T03:58:18.265Z,3.46
2017-10-25T03:59:28.606Z,3.46
2017-10-25T04:00:38.610Z,3.41
2017-10-25T04:01:48.947Z,3.41
2017-10-25T04:02:59.284Z,3.43
2017-10-25T04:04:09.624Z,3.46
2017-10-25T04:05:19.978Z,3.43
2017-10-25T04:06:30.353Z,3.48
2017-10-25T04:07:40.693Z,3.43
2017-10-25T04:08:51.039Z,3.46
2017-10-25T04:10:01.391Z,3.4
2017-10-25T04:11:11.740Z,3.49
2017-10-25T04:12:21.741Z,3.43
2017-10-25T04:13:32.083Z,3.43
2017-10-25T04:14:42.434Z,3.43
2017-10-25T04:15:52.440Z,3.31
2017-10-25T04:17:02.806Z,3.43
2017-10-25T04:18:13.149Z,3.3
2017-10-25T04:19:23.497Z,3.4
2017-10-25T04:20:33.496Z,3.33
2017-10-25T04:21:43.834Z,3.31
2017-10-25T04:22:54.173Z,3.43
2017-10-25T04:24:04.183Z,3.43
2017-10-25T04:25:14.186Z,3.43
2017-10-25T04:26:23.856Z,3.45
2017-10-25T04:27:33.857Z,3.46
2017-10-25T04:28:43.867Z,3.46
2017-10-25T04:29:53.866Z,3.34
2017-10-25T04:31:03.885Z,3.46
2017-10-25T04:32:14.234Z,3.41
2017-10-25T04:33:24.575Z,3.43
2017-10-25T04:34:34.917Z,3.41
2017-10-25T04:35:45.261Z,3.43
2017-10-25T04:36:55.271Z,3.48
2017-10-25T04:38:05.611Z,3.49
2017-10-25T04:39:15.950Z,3.45
2017-10-25T04:40:26.288Z,3.5
2017-10-25T04:41:35.956Z,3.55
2017-10-25T04:42:46.295Z,3.49
2017-10-25T04:43:56.630Z,3.48
2017-10-25T04:45:06.979Z,3.52
2017-10-25T04:46:16.995Z,3.53
2017-10-25T04:47:27.332Z,3.53
2017-10-25T04:48:37.341Z,3.5
2017-10-25T04:49:47.683Z,3.5
2017-10-25T04:50:58.036Z,3.55
2017-10-25T04:52:07.707Z,3.58
2017-10-25T04:53:17.713Z,3.53
2017-10-25T04:54:28.051Z,3.55
2017-10-25T04:55:38.056Z,3.5
2017-10-25T04:56:48.061Z,3.63
2017-10-25T04:57:58.651Z,3.55
2017-10-25T04:59:08.658Z,3.55
2017-10-25T05:00:19.003Z,3.56
2017-10-25T05:01:29.018Z,3.53
2017-10-25T05:02:39.353Z,3.56
2017-10-25T05:03:49.707Z,3.55
2017-10-25T05:04:59.721Z,3.56
2017-10-25T05:06:09.723Z,3.53
2017-10-25T05:07:20.075Z,3.52
2017-10-25T05:08:30.425Z,3.58
2017-10-25T05:09:40.764Z,3.58
2017-10-25T05:10:51.100Z,3.5
2017-10-25T05:12:01.444Z,3.58
2017-10-25T05:13:11.783Z,3.53
2017-10-25T05:14:21.783Z,3.56
2017-10-25T05:15:32.127Z,3.56
2017-10-25T05:16:41.812Z,3.56
2017-10-25T05:17:52.168Z,3.5
2017-10-25T05:19:02.518Z,3.55
2017-10-25T05:20:12.195Z,3.58
2017-10-25T05:21:22.199Z,3.56
2017-10-25T05:22:32.538Z,3.52
2017-10-25T05:23:42.546Z,3.5
2017-10-25T05:24:52.886Z,3.53
2017-10-25T05:26:02.890Z,3.56
2017-10-25T05:27:12.902Z,3.56
2017-10-25T05:28:22.928Z,3.5
2017-10-25T05:29:33.272Z,3.59
2017-10-25T05:30:43.610Z,3.64
2017-10-25T05:31:53.957Z,3.55
2017-10-25T05:33:04.297Z,3.59
2017-10-25T05:34:14.301Z,3.55
2017-10-25T05:35:24.646Z,3.56
2017-10-25T05:36:34.649Z,3.56
2017-10-25T05:37:44.986Z,3.56
2017-10-25T05:38:55.325Z,3.61
2017-10-25T05:40:05.673Z,3.64
2017-10-25T05:41:15.681Z,3.64
2017-10-25T05:42:26.032Z,3.63
2017-10-25T05:43:36.038Z,3.63
2017-10-25T05:44:46.380Z,3.64
2017-10-25T05:45:56.725Z,3.67
2017-10-25T05:47:07.068Z,3.61
2017-10-25T05:48:17.422Z,3.59
2017-10-25T05:49:27.757Z,3.67
2017-10-25T05:50:37.759Z,3.68
2017-10-25T05:51:47.432Z,3.61
2017-10-25T05:52:57.791Z,3.55
2017-10-25T05:54:08.137Z,3.58
2017-10-25T05:55:18.144Z,3.67
2017-10-25T05:56:28.491Z,3.63
2017-10-25T05:57:38.521Z,3.59
2017-10-25T05:58:48.858Z,3.59
2017-10-25T05:59:59.200Z,3.56
2017-10-25T06:01:09.548Z,3.55
2017-10-25T06:02:19.216Z,3.55
2017-10-25T06:03:29.555Z,3.55
2017-10-25T06:04:39.229Z,3.56
2017-10-25T06:05:49.572Z,3.56
2017-10-25T06:06:59.579Z,3.53
2017-10-25T06:08:11.923Z,3.58
2017-10-25T06:09:21.948Z,3.63
2017-10-25T06:10:31.955Z,3.58
2017-10-25T06:11:41.957Z,3.55
2017-10-25T06:12:52.301Z,3.56
2017-10-25T06:14:02.638Z,3.59
2017-10-25T06:15:12.981Z,3.58
2017-10-25T06:16:23.317Z,3.58
2017-10-25T06:17:33.319Z,3.55
2017-10-25T06:18:43.340Z,3.56
2017-10-25T06:19:53.982Z,3.56
2017-10-25T06:21:03.993Z,3.7
2017-10-25T06:22:14.002Z,3.59
2017-10-25T06:23:24.353Z,3.59
2017-10-25T06:24:34.028Z,3.71
2017-10-25T06:25:44.031Z,3.67
2017-10-25T06:26:54.395Z,3.59
2017-10-25T06:28:04.757Z,3.56
2017-10-25T06:29:14.772Z,3.67
2017-10-25T06:30:24.784Z,3.61
2017-10-25T06:31:35.126Z,3.56
2017-10-25T06:32:45.136Z,3.63
2017-10-25T06:33:55.486Z,3.71
2017-10-25T06:35:05.829Z,3.61
2017-10-25T06:36:15.833Z,3.61
2017-10-25T06:37:26.169Z,3.66
2017-10-25T06:38:36.511Z,3.7
2017-10-25T06:39:46.183Z,3.7
2017-10-25T06:40:56.530Z,3.74
2017-10-25T06:42:06.552Z,3.68
2017-10-25T06:43:16.911Z,3.7
2017-10-25T06:44:26.915Z,3.71
2017-10-25T06:45:36.582Z,3.71
2017-10-25T06:46:46.583Z,3.68
2017-10-25T06:47:56.921Z,3.7
2017-10-25T06:49:06.600Z,3.73
2017-10-25T06:50:16.941Z,3.68
2017-10-25T06:51:27.285Z,3.71
2017-10-25T06:52:37.295Z,3.71
2017-10-25T06:53:47.296Z,3.64
2017-10-25T06:54:57.642Z,3.61
2017-10-25T06:56:07.646Z,3.67
2017-10-25T06:57:17.663Z,3.67
2017-10-25T06:58:27.998Z,3.56
2017-10-25T06:59:38.345Z,3.5
2017-10-25T07:00:48.354Z,3.56
2017-10-25T07:01:58.703Z,3.48
2017-10-25T07:03:08.725Z,3.52
2017-10-25T07:04:19.098Z,3.46
2017-10-25T07:05:29.432Z,3.55
2017-10-25T07:06:39.772Z,3.56
2017-10-25T07:07:50.116Z,3.67
2017-10-25T07:09:00.462Z,3.64
2017-10-25T07:10:10.472Z,3.67
2017-10-25T07:11:20.832Z,3.58
2017-10-25T07:12:31.167Z,3.63
2017-10-25T07:13:41.505Z,3.63
2017-10-25T07:14:51.860Z,3.58
2017-10-25T07:16:01.876Z,3.7
2017-10-25T07:17:12.222Z,3.68
2017-10-25T07:18:22.235Z,3.68
2017-10-25T07:19:32.577Z,3.74
2017-10-25T07:20:42.914Z,3.77
2017-10-25T07:21:52.920Z,3.84
2017-10-25T07:23:02.943Z,3.81
2017-10-25T07:24:13.284Z,3.78
2017-10-25T07:25:23.631Z,3.78
2017-10-25T07:26:33.637Z,3.84
2017-10-25T07:27:43.984Z,3.76
2017-10-25T07:28:54.335Z,3.95
2017-10-25T07:30:04.338Z,3.94
2017-10-25T07:31:14.676Z,3.95
2017-10-25T07:32:25.024Z,3.91
2017-10-25T07:33:35.412Z,3.86
2017-10-25T07:34:45.756Z,4.03
2017-10-25T07:35:56.100Z,4
2017-10-25T07:37:06.458Z,3.95
2017-10-25T07:38:16.801Z,3.96
2017-10-25T07:39:27.153Z,3.99
2017-10-25T07:40:37.178Z,4.06
2017-10-25T07:41:47.518Z,4.1
2017-10-25T07:42:57.524Z,4.06
2017-10-25T07:44:07.193Z,4.02
2017-10-25T07:45:17.197Z,3.95
2017-10-25T07:46:27.535Z,3.88
2017-10-25T07:47:37.207Z,3.82
2017-10-25T07:48:47.564Z,3.76
2017-10-25T07:49:57.588Z,3.67
2017-10-25T07:51:07.620Z,3.7
2017-10-25T07:52:17.959Z,3.61
2017-10-25T07:53:30.298Z,3.63
2017-10-25T07:54:40.640Z,3.56
2017-10-25T07:55:50.976Z,3.56
2017-10-25T07:57:00.983Z,3.59
2017-10-25T07:58:11.323Z,3.53
2017-10-25T07:59:21.716Z,3.41
2017-10-25T08:00:32.080Z,3.41
2017-10-25T08:01:42.420Z,3.34
2017-10-25T08:02:52.424Z,3.37
2017-10-25T08:04:02.772Z,3.37
2017-10-25T08:05:12.793Z,3.3
2017-10-25T08:06:23.130Z,3.4
2017-10-25T08:07:33.134Z,3.46
2017-10-25T08:08:43.490Z,3.41
2017-10-25T08:09:53.496Z,3.37
2017-10-25T08:11:02.849Z,3.34
2017-10-25T08:12:13.186Z,3.3
2017-10-25T08:13:22.864Z,3.27
2017-10-25T08:14:33.203Z,3.26
2017-10-25T08:15:43.212Z,3.27
2017-10-25T08:16:53.234Z,3.19
2017-10-25T08:18:03.579Z,3.18
2017-10-25T08:19:13.918Z,3.16
2017-10-25T08:20:24.255Z,3.31
2017-10-25T08:21:34.262Z,3.24
2017-10-25T08:22:44.283Z,3.26
2017-10-25T08:23:54.289Z,3.26
2017-10-25T08:25:04.289Z,3.26
2017-10-25T08:26:14.291Z,3.22
2017-10-25T08:27:23.970Z,3.16
2017-10-25T08:28:33.637Z,3.24
2017-10-25T08:29:43.652Z,3.33
2017-10-25T08:30:53.659Z,3.37
2017-10-25T08:32:03.998Z,3.46
2017-10-25T08:33:14.009Z,3.56
2017-10-25T08:34:24.387Z,3.67
2017-10-25T08:35:35.038Z,3.61
2017-10-25T08:36:45.121Z,3.64
2017-10-25T08:37:55.771Z,3.52
2017-10-25T08:39:06.139Z,3.7
2017-10-25T08:40:16.218Z,3.63
2017-10-25T08:41:26.602Z,3.55
2017-10-25T08:42:36.938Z,3.37
2017-10-25T08:43:46.621Z,3.41
2017-10-25T08:44:56.633Z,3.41
2017-10-25T08:46:06.988Z,3.46
2017-10-25T08:47:17.340Z,3.37
2017-10-25T08:48:27.681Z,3.46
2017-10-25T08:49:38.034Z,3.46
2017-10-25T08:50:47.710Z,3.37
2017-10-25T08:51:58.070Z,3.4
2017-10-25T08:53:08.421Z,3.41
2017-10-25T08:54:18.765Z,3.4
2017-10-25T08:55:28.442Z,3.48
2017-10-25T08:56:38.783Z,3.41
2017-10-25T08:57:48.793Z,3.41
2017-10-25T08:58:58.810Z,3.34
2017-10-25T09:00:08.850Z,3.45
2017-10-25T09:01:18.853Z,3.48
2017-10-25T09:02:28.859Z,3.43
2017-10-25T09:03:38.941Z,3.49
2017-10-25T09:04:49.299Z,3.48
2017-10-25T09:05:59.303Z,3.46
2017-10-25T09:07:09.650Z,3.52
2017-10-25T09:08:19.994Z,3.45
2017-10-25T09:09:30.336Z,3.49
2017-10-25T09:10:40.357Z,3.45
2017-10-25T09:11:50.696Z,3.48
2017-10-25T09:13:00.704Z,3.41
2017-10-25T09:14:10.705Z,3.43
2017-10-25T09:15:21.048Z,3.43
2017-10-25T09:16:31.391Z,3.46
2017-10-25T09:17:41.394Z,3.45
2017-10-25T09:18:51.059Z,3.41
2017-10-25T09:20:01.402Z,3.41
2017-10-25T09:21:11.747Z,3.37
2017-10-25T09:22:21.430Z,3.36
2017-10-25T09:23:31.432Z,3.43
2017-10-25T09:24:41.772Z,3.37
2017-10-25T09:25:52.114Z,3.43
2017-10-25T09:27:01.805Z,3.31
2017-10-25T09:28:11.810Z,3.31
2017-10-25T09:29:22.152Z,3.36
2017-10-25T09:30:32.496Z,3.3
2017-10-25T09:31:42.495Z,3.34
2017-10-25T09:32:52.836Z,3.49
2017-10-25T09:34:02.856Z,3.34
2017-10-25T09:35:12.540Z,3.34
2017-10-25T09:36:22.897Z,3.43
2017-10-25T09:37:32.902Z,3.31
2017-10-25T09:38:43.250Z,3.34
2017-10-25T09:39:52.920Z,3.27
2017-10-25T09:41:02.593Z,3.21
2017-10-25T09:42:12.937Z,3.34
2017-10-25T09:43:22.964Z,3.21
2017-10-25T09:44:33.311Z,3.26
2017-10-25T09:45:43.648Z,3.19
2017-10-25T09:46:53.651Z,3.31
2017-10-25T09:48:03.659Z,3.27
2017-10-25T09:49:13.994Z,3.19
2017-10-25T09:50:23.666Z,3.09
2017-10-25T09:51:34.014Z,3.24
2017-10-25T09:52:44.352Z,3.26
2017-10-25T09:53:54.022Z,3.19
2017-10-25T09:55:04.025Z,3.15
2017-10-25T09:56:14.367Z,3.27
2017-10-25T09:57:24.712Z,3.29
2017-10-25T09:58:34.377Z,3.27
2017-10-25T09:59:44.390Z,3.36
2017-10-25T10:00:54.729Z,3.22
2017-10-25T10:02:05.072Z,3.24
2017-10-25T10:03:15.410Z,3.34
2017-10-25T10:04:25.751Z,3.22
2017-10-25T10:05:36.091Z,3.19
2017-10-25T10:06:46.432Z,3.26
2017-10-25T10:07:56.774Z,3.18
2017-10-25T10:09:07.112Z,3.22
2017-10-25T10:10:17.114Z,3.12
2017-10-25T10:11:27.453Z,3.18
2017-10-25T10:12:37.805Z,3.18
2017-10-25T10:13:48.149Z,3.15
2017-10-25T10:14:58.170Z,3.12
2017-10-25T10:16:08.174Z,3.27
2017-10-25T10:17:18.510Z,3.18
2017-10-25T10:18:28.844Z,3.19
2017-10-25T10:19:38.519Z,3.15
2017-10-25T10:20:48.875Z,3.15
2017-10-25T10:21:58.875Z,3.29
2017-10-25T10:23:08.886Z,3.22
2017-10-25T10:24:18.569Z,3.26
2017-10-25T10:25:28.569Z,3.26
2017-10-25T10:26:38.573Z,3.22
2017-10-25T10:27:48.248Z,3.22
2017-10-25T10:28:58.583Z,3.29
2017-10-25T10:30:07.945Z,3.31
2017-10-25T10:31:18.281Z,3.4
2017-10-25T10:32:28.617Z,3.46
2017-10-25T10:33:38.959Z,3.34
2017-10-25T10:34:49.302Z,3.33
2017-10-25T10:35:59.647Z,3.45
2017-10-25T10:37:08.980Z,3.48
2017-10-25T10:38:19.005Z,3.4
2017-10-25T10:39:29.020Z,3.48
2017-10-25T10:40:39.358Z,3.43
2017-10-25T10:41:49.722Z,3.43
2017-10-25T10:42:59.731Z,3.49
2017-10-25T10:44:09.398Z,3.46
2017-10-25T10:45:19.403Z,3.48
2017-10-25T10:46:29.071Z,3.43
2017-10-25T10:47:39.409Z,3.46
2017-10-25T10:48:49.749Z,3.43
2017-10-25T10:50:00.087Z,3.58
2017-10-25T10:51:10.431Z,3.64
2017-10-25T10:52:20.772Z,3.58
2017-10-25T10:53:31.122Z,3.56
2017-10-25T10:54:41.462Z,3.7
2017-10-25T10:55:51.129Z,3.73
2017-10-25T10:57:01.134Z,3.78
2017-10-25T10:58:11.489Z,3.77
2017-10-25T10:59:21.827Z,3.85
2017-10-25T11:00:31.826Z,4.07
2017-10-25T11:01:41.500Z,4.49
2017-10-25T11:02:51.840Z,4.83
2017-10-25T11:04:01.855Z,5.37
2017-10-25T11:05:12.207Z,5.72
2017-10-25T11:06:22.546Z,5.99
2017-10-25T11:07:32.550Z,6.39
2017-10-25T11:08:42.577Z,6.74
2017-10-25T11:09:52.915Z,7.18
2017-10-25T11:11:03.270Z,7.46
2017-10-25T11:12:12.948Z,7.69
2017-10-25T11:13:23.299Z,7.78
2017-10-25T11:14:33.644Z,7.62
2017-10-25T11:15:43.668Z,7.37
2017-10-25T11:16:53.345Z,7.21
2017-10-25T11:18:03.379Z,7.13
2017-10-25T11:19:13.728Z,7
2017-10-25T11:20:23.757Z,6.77
2017-10-25T11:21:33.770Z,6.62
2017-10-25T11:22:42.790Z,6.41
2017-10-25T11:23:52.799Z,6.17
2017-10-25T11:25:03.151Z,6.1
2017-10-25T11:26:13.507Z,6.09
2017-10-25T11:27:23.522Z,5.98
2017-10-25T11:28:33.871Z,5.62
2017-10-25T11:29:44.212Z,5.41
2017-10-25T11:30:54.225Z,5.22
2017-10-25T11:32:04.247Z,5.22
2017-10-25T11:33:14.253Z,5.2
2017-10-25T11:34:24.595Z,5.25
2017-10-25T11:35:34.608Z,5.16
2017-10-25T11:36:44.953Z,5.13
2017-10-25T11:37:54.966Z,5.15
2017-10-25T11:39:05.311Z,5.08
2017-10-25T11:40:15.658Z,5.18
2017-10-25T11:41:26.299Z,5.16
2017-10-25T11:42:36.318Z,5.18
2017-10-25T11:43:45.990Z,4.98
2017-10-25T11:44:56.363Z,5.04
2017-10-25T11:46:06.369Z,4.94
2017-10-25T11:47:16.040Z,4.78
2017-10-25T11:48:25.711Z,4.79
2017-10-25T11:49:35.722Z,4.7
2017-10-25T11:50:45.731Z,4.64
2017-10-25T11:51:56.093Z,4.63
2017-10-25T11:53:06.114Z,4.49
2017-10-25T11:54:16.120Z,4.58
2017-10-25T11:55:25.798Z,4.4
2017-10-25T11:56:35.824Z,4.4
2017-10-25T11:57:46.182Z,4.4
2017-10-25T11:58:56.191Z,4.32
2017-10-25T12:00:06.541Z,4.32
2017-10-25T12:01:16.559Z,4.46
2017-10-25T12:02:26.904Z,4.5
2017-10-25T12:03:37.248Z,4.82
2017-10-25T12:04:47.593Z,4.89
2017-10-25T12:05:57.597Z,4.84
2017-10-25T12:07:07.612Z,4.84
2017-10-25T12:08:17.981Z,4.71
2017-10-25T12:09:27.986Z,4.78
2017-10-25T12:10:38.331Z,4.89
2017-10-25T12:11:48.336Z,4.97
2017-10-25T12:12:58.675Z,4.97
2017-10-25T12:14:09.012Z,5.02
2017-10-25T12:15:19.017Z,4.97
2017-10-25T12:16:29.367Z,4.87
2017-10-25T12:17:39.369Z,4.83
2017-10-25T12:18:49.708Z,4.83
2017-10-25T12:20:00.055Z,4.75
2017-10-25T12:21:10.062Z,4.78
2017-10-25T12:22:20.423Z,4.83
2017-10-25T12:23:30.766Z,4.82
2017-10-25T12:24:40.438Z,4.9
2017-10-25T12:25:50.452Z,4.86
2017-10-25T12:27:00.124Z,4.97
2017-10-25T12:28:10.502Z,5
2017-10-25T12:29:20.507Z,5.02
2017-10-25T12:30:30.864Z,5.07
2017-10-25T12:31:41.203Z,5.12
2017-10-25T12:32:51.206Z,5.16
2017-10-25T12:34:03.553Z,5.15
2017-10-25T12:35:13.563Z,5.13
2017-10-25T12:36:23.908Z,5.31
2017-10-25T12:37:34.248Z,5.22
2017-10-25T12:38:44.254Z,5.34
2017-10-25T12:39:54.592Z,5.34
2017-10-25T12:41:04.944Z,5.43
2017-10-25T12:42:15.301Z,5.47
2017-10-25T12:43:25.641Z,5.41
2017-10-25T12:44:35.988Z,5.38
2017-10-25T12:45:45.663Z,5.44
2017-10-25T12:46:56.030Z,5.55
2017-10-25T12:48:06.036Z,5.76
2017-10-25T12:49:16.382Z,5.79
2017-10-25T12:50:26.053Z,5.8
2017-10-25T12:51:36.403Z,5.69
2017-10-25T12:52:46.746Z,5.55
2017-10-25T12:53:57.086Z,5.64
2017-10-25T12:55:07.443Z,5.77
2017-10-25T12:56:17.792Z,5.77
2017-10-25T12:57:28.130Z,5.8
2017-10-25T12:58:38.476Z,5.91
2017-10-25T12:59:48.171Z,6.06
2017-10-25T13:00:58.516Z,6.07
2017-10-25T13:02:08.199Z,6.19
2017-10-25T13:03:18.216Z,6.5
2017-10-25T13:04:28.558Z,6.6
2017-10-25T13:05:38.227Z,6.62
2017-10-25T13:06:48.234Z,6.6
2017-10-25T13:07:58.577Z,6.44
2017-10-25T13:09:08.596Z,6.44
2017-10-25T13:10:18.614Z,6.2
2017-10-25T13:11:28.624Z,6.16
2017-10-25T13:12:38.971Z,6.34
2017-10-25T13:13:48.996Z,6.28
2017-10-25T13:14:59.008Z,6.34
2017-10-25T13:16:08.687Z,6.07
2017-10-25T13:17:19.035Z,6.1
2017-10-25T13:18:29.074Z,6.07
2017-10-25T13:19:38.747Z,5.97
2017-10-25T13:20:48.762Z,6.15
2017-10-25T13:21:59.125Z,6.02
2017-10-25T13:23:09.482Z,6.09
2017-10-25T13:24:19.158Z,6.1
2017-10-25T13:25:29.173Z,6.02
2017-10-25T13:26:39.184Z,5.99
2017-10-25T13:27:49.535Z,5.98
2017-10-25T13:28:59.897Z,6.07
2017-10-25T13:30:10.238Z,5.97
2017-10-25T13:31:20.580Z,5.98
2017-10-25T13:32:30.919Z,6.05
2017-10-25T13:33:40.936Z,6.15
2017-10-25T13:34:50.942Z,6.09
2017-10-25T13:36:01.279Z,6.16
2017-10-25T13:37:10.637Z,5.98
2017-10-25T13:38:20.987Z,5.97
2017-10-25T13:39:30.992Z,6.01
2017-10-25T13:40:41.345Z,5.87
2017-10-25T13:41:51.687Z,5.9
2017-10-25T13:43:02.035Z,5.65
2017-10-25T13:44:12.394Z,5.58
2017-10-25T13:45:22.733Z,5.37
2017-10-25T13:46:33.075Z,5.29
2017-10-25T13:47:43.412Z,5.22
2017-10-25T13:48:53.413Z,5.18
2017-10-25T13:50:03.416Z,5.12
2017-10-25T13:51:13.428Z,4.97
2017-10-25T13:52:23.790Z,4.86
2017-10-25T13:53:34.128Z,4.75
2017-10-25T13:54:44.473Z,4.61
2017-10-25T13:55:54.473Z,4.63
2017-10-25T13:57:04.826Z,4.52
2017-10-25T13:58:15.175Z,4.38
2017-10-25T13:59:25.521Z,4.31
2017-10-25T14:00:35.865Z,4.25
2017-10-25T14:01:45.876Z,4.1
2017-10-25T14:02:56.221Z,3.96
2017-10-25T14:04:06.565Z,3.94
2017-10-25T14:05:16.575Z,3.84
2017-10-25T14:06:26.923Z,3.74
2017-10-25T14:07:36.600Z,3.67
2017-10-25T14:08:46.603Z,3.66
2017-10-25T14:09:56.605Z,3.59
2017-10-25T14:11:06.612Z,3.5
2017-10-25T14:12:16.961Z,3.48
2017-10-25T14:13:27.333Z,3.43
2017-10-25T14:14:37.683Z,3.4
2017-10-25T14:15:47.701Z,3.41
2017-10-25T14:16:58.084Z,3.48
2017-10-25T14:18:08.093Z,3.45
2017-10-25T14:19:18.440Z,3.31
2017-10-25T14:20:28.112Z,3.34
2017-10-25T14:21:37.781Z,3.31
2017-10-25T14:22:48.122Z,3.33
2017-10-25T14:23:58.468Z,3.22
2017-10-25T14:25:08.470Z,3.21
2017-10-25T14:26:18.808Z,3.29
2017-10-25T14:27:29.141Z,3.13
2017-10-25T14:28:39.151Z,3.21
2017-10-25T14:29:49.486Z,3.22
2017-10-25T14:30:59.486Z,3.18
2017-10-25T14:32:09.158Z,3.13
2017-10-25T14:33:19.164Z,3.18
2017-10-25T14:34:29.161Z,3.24
2017-10-25T14:35:39.514Z,3.33
2017-10-25T14:36:49.847Z,3.26
2017-10-25T14:37:59.853Z,3.21
2017-10-25T14:39:10.194Z,3.29
2017-10-25T14:40:20.214Z,3.26
2017-10-25T14:41:30.551Z,3.13
2017-10-25T14:42:40.886Z,3.22
2017-10-25T14:43:50.888Z,3.22
2017-10-25T14:45:01.225Z,3.22
2017-10-25T14:46:11.228Z,3.13
2017-10-25T14:47:21.293Z,3.18
2017-10-25T14:48:31.282Z,3.16
2017-10-25T14:49:40.945Z,3.19
2017-10-25T14:50:50.954Z,3.22
2017-10-25T14:52:01.306Z,3.18
2017-10-25T14:53:11.308Z,3.13
2017-10-25T14:54:21.691Z,3.24
2017-10-25T14:55:31.699Z,3.16
2017-10-25T14:56:42.038Z,3.22
2017-10-25T14:57:52.049Z,3.22
2017-10-25T14:59:02.411Z,3.21
2017-10-25T15:00:12.751Z,3.19
2017-10-25T15:01:23.088Z,3.19
2017-10-25T15:02:32.754Z,3.13
2017-10-25T15:03:42.421Z,3.13
2017-10-25T15:04:52.424Z,3.09
2017-10-25T15:06:02.760Z,3.05
2017-10-25T15:07:13.105Z,3.09
2017-10-25T15:08:23.438Z,3.05
2017-10-25T15:09:33.773Z,2.98
2017-10-25T15:10:44.141Z,2.98
2017-10-25T15:11:54.477Z,3
2017-10-25T15:13:04.815Z,3.01
2017-10-25T15:14:15.154Z,3
2017-10-25T15:15:25.158Z,2.97
2017-10-25T15:16:35.505Z,3.05
2017-10-25T15:17:45.842Z,3.06
2017-10-25T15:18:56.185Z,3
2017-10-25T15:20:06.537Z,2.95
2017-10-25T15:21:16.874Z,2.95
2017-10-25T15:22:27.249Z,2.91
2017-10-25T15:23:37.586Z,2.91
2017-10-25T15:24:47.923Z,2.94
2017-10-25T15:25:58.263Z,2.91
2017-10-25T15:27:08.599Z,2.98
2017-10-25T15:28:18.597Z,2.94
2017-10-25T15:29:28.263Z,2.98
2017-10-25T15:30:38.271Z,2.93
2017-10-25T15:31:48.606Z,2.97
2017-10-25T15:32:58.626Z,2.95
2017-10-25T15:34:08.634Z,2.87
2017-10-25T15:35:18.632Z,2.87
2017-10-25T15:36:28.301Z,2.87
2017-10-25T15:37:37.977Z,2.9